createdAt,value
2019-05-29T00:00:18.379Z,8.33
2019-05-29T00:02:47.757Z,11.00
2019-05-29T00:05:18.328Z,6.63
2019-05-29T00:07:47.803Z,5.47
2019-05-29T00:10:17.084Z,5.23
2019-05-29T00:12:46.473Z,5.20
2019-05-29T00:15:16.566Z,5.50
2019-05-29T00:17:45.849Z,4.83
2019-05-29T00:20:15.186Z,5.03
2019-05-29T00:22:44.497Z,4.90
2019-05-29T00:25:14.746Z,5.43
2019-05-29T00:27:44.117Z,5.47
2019-05-29T00:30:14.894Z,5.27
2019-05-29T00:32:44.288Z,4.63
2019-05-29T00:35:14.346Z,4.70
2019-05-29T00:37:43.778Z,4.77
2019-05-29T00:40:13.432Z,4.93
2019-05-29T00:42:42.720Z,5.40
2019-05-29T00:45:13.432Z,5.03
2019-05-29T00:47:42.805Z,5.27
2019-05-29T00:50:12.407Z,5.53
2019-05-29T00:52:41.795Z,5.57
2019-05-29T00:55:12.471Z,5.03
2019-05-29T00:57:41.991Z,5.30
2019-05-29T01:00:13.154Z,5.57
2019-05-29T01:02:42.654Z,5.23
2019-05-29T01:05:12.078Z,5.17
2019-05-29T01:07:41.386Z,5.20
2019-05-29T01:10:12.999Z,5.30
2019-05-29T01:12:42.550Z,5.63
2019-05-29T01:15:13.322Z,5.00
2019-05-29T01:17:42.734Z,5.20
2019-05-29T01:20:12.141Z,5.23
2019-05-29T01:22:41.405Z,5.27
2019-05-29T01:25:11.026Z,5.13
2019-05-29T01:27:40.353Z,5.80
2019-05-29T01:30:09.717Z,5.47
2019-05-29T01:32:39.042Z,5.50
2019-05-29T01:35:09.122Z,5.70
2019-05-29T01:37:38.410Z,6.23
2019-05-29T01:40:19.132Z,5.70
2019-05-29T01:42:38.960Z,5.80
2019-05-29T01:45:08.860Z,5.90
2019-05-29T01:47:38.444Z,5.30
2019-05-29T01:50:08.628Z,5.60
2019-05-29T01:52:37.910Z,6.23
2019-05-29T01:55:07.531Z,6.30
2019-05-29T01:57:36.892Z,5.80
2019-05-29T02:00:06.749Z,6.53
2019-05-29T02:02:36.198Z,5.40
2019-05-29T02:05:05.565Z,6.10
2019-05-29T02:07:34.849Z,5.70
2019-05-29T02:10:04.295Z,5.90
2019-05-29T02:12:33.574Z,6.90
2019-05-29T02:15:02.871Z,5.97
2019-05-29T02:17:32.242Z,7.03
2019-05-29T02:20:01.529Z,6.47
2019-05-29T02:22:30.815Z,6.90
2019-05-29T02:25:00.195Z,7.30
2019-05-29T02:27:29.751Z,6.40
2019-05-29T02:29:59.071Z,6.73
2019-05-29T02:32:28.505Z,7.17
2019-05-29T02:34:57.884Z,7.00
2019-05-29T02:37:28.974Z,6.80
2019-05-29T02:39:58.426Z,6.40
2019-05-29T02:42:29.052Z,6.47
2019-05-29T02:44:58.879Z,7.07
2019-05-29T02:47:30.128Z,6.47
2019-05-29T02:49:59.399Z,7.00
2019-05-29T02:52:30.622Z,6.60
2019-05-29T02:54:59.836Z,6.80
2019-05-29T02:57:29.305Z,6.27
2019-05-29T03:00:00.008Z,6.67
2019-05-29T03:02:30.214Z,6.03
2019-05-29T03:05:00.366Z,7.23
2019-05-29T03:07:30.784Z,7.27
2019-05-29T03:10:01.091Z,7.00
2019-05-29T03:12:31.447Z,7.30
2019-05-29T03:15:01.271Z,7.37
2019-05-29T03:17:31.901Z,6.73
2019-05-29T03:20:01.353Z,7.60
2019-05-29T03:22:31.359Z,8.30
2019-05-29T03:25:01.708Z,7.50
2019-05-29T03:27:31.983Z,7.53
2019-05-29T03:30:01.779Z,7.33
2019-05-29T03:32:37.739Z,7.50
2019-05-29T03:35:02.222Z,8.03
2019-05-29T03:37:32.446Z,6.93
2019-05-29T03:40:02.144Z,7.00
2019-05-29T03:42:32.514Z,7.47
2019-05-29T03:45:02.147Z,6.63
2019-05-29T03:47:33.041Z,7.97
2019-05-29T03:50:06.411Z,8.40
2019-05-29T03:52:35.819Z,8.20
2019-05-29T03:55:05.334Z,8.70
2019-05-29T03:57:35.820Z,6.70
2019-05-29T04:00:05.706Z,6.50
2019-05-29T04:02:35.646Z,6.30
2019-05-29T04:05:06.401Z,5.73
2019-05-29T04:07:37.395Z,6.40
2019-05-29T04:10:07.167Z,6.13
2019-05-29T04:12:38.054Z,6.17
2019-05-29T04:15:09.032Z,6.50
2019-05-29T04:17:40.079Z,5.83
2019-05-29T04:20:09.566Z,6.17
2019-05-29T04:22:44.797Z,6.03
2019-05-29T04:25:14.558Z,5.73
2019-05-29T04:27:44.063Z,6.17
2019-05-29T04:30:13.764Z,6.40
2019-05-29T04:32:43.022Z,7.27
2019-05-29T04:35:12.364Z,6.07
2019-05-29T04:37:41.729Z,6.03
2019-05-29T04:40:11.257Z,6.77
2019-05-29T04:42:40.721Z,6.37
2019-05-29T04:45:10.669Z,6.07
2019-05-29T04:47:40.073Z,6.60
2019-05-29T04:50:10.131Z,6.47
2019-05-29T04:52:40.315Z,6.57
2019-05-29T04:55:10.281Z,6.40
2019-05-29T04:57:39.856Z,6.70
2019-05-29T05:00:10.014Z,6.03
2019-05-29T05:02:39.568Z,6.57
2019-05-29T05:05:09.806Z,6.80
2019-05-29T05:07:39.604Z,6.03
2019-05-29T05:10:10.055Z,7.00
2019-05-29T05:12:40.185Z,6.83
2019-05-29T05:15:46.822Z,6.73
2019-05-29T05:18:16.143Z,6.67
2019-05-29T05:20:45.433Z,6.60
2019-05-29T05:23:14.731Z,6.03
2019-05-29T05:25:44.040Z,7.47
2019-05-29T05:28:13.307Z,6.77
2019-05-29T05:30:42.594Z,8.33
2019-05-29T05:33:11.942Z,6.80
2019-05-29T05:35:41.303Z,7.47
2019-05-29T05:38:10.575Z,7.63
2019-05-29T05:40:42.722Z,7.60
2019-05-29T05:43:23.212Z,7.83
2019-05-29T05:45:42.036Z,8.47
2019-05-29T05:48:11.337Z,8.13
2019-05-29T05:50:41.474Z,8.37
2019-05-29T05:53:10.953Z,7.73
2019-05-29T05:55:41.709Z,7.43
2019-05-29T05:58:11.230Z,7.80
2019-05-29T06:00:40.510Z,7.97
2019-05-29T06:03:09.846Z,7.87
2019-05-29T06:05:40.227Z,8.17
2019-05-29T06:08:09.632Z,8.67
2019-05-29T06:10:38.941Z,8.77
2019-05-29T06:13:08.280Z,8.80
2019-05-29T06:15:38.457Z,7.90
2019-05-29T06:18:20.487Z,7.07
2019-05-29T06:20:39.051Z,7.73
2019-05-29T06:23:08.569Z,8.73
2019-05-29T06:25:39.957Z,15.60
2019-05-29T06:28:08.979Z,8.40
2019-05-29T06:30:39.304Z,8.37
2019-05-29T06:33:09.382Z,7.60
2019-05-29T06:35:39.616Z,7.33
2019-05-29T06:38:09.132Z,7.40
2019-05-29T06:40:40.302Z,7.43
2019-05-29T06:43:20.266Z,6.87
2019-05-29T06:45:49.974Z,7.23
2019-05-29T06:48:41.317Z,8.50
2019-05-29T06:50:57.988Z,7.03
2019-05-29T06:53:27.718Z,8.03
2019-05-29T06:55:58.320Z,7.60
2019-05-29T06:58:28.083Z,7.90
2019-05-29T07:00:57.377Z,7.90
2019-05-29T07:03:26.669Z,7.17
2019-05-29T07:05:56.092Z,9.47
2019-05-29T07:08:38.181Z,8.20
2019-05-29T07:10:56.409Z,7.53
2019-05-29T07:13:25.874Z,7.40
2019-05-29T07:15:55.342Z,6.63
2019-05-29T07:18:24.636Z,7.60
2019-05-29T07:20:53.947Z,6.40
2019-05-29T07:23:23.231Z,7.00
2019-05-29T07:25:52.517Z,6.50
2019-05-29T07:28:21.998Z,6.93
2019-05-29T07:31:00.940Z,7.23
2019-05-29T07:33:22.357Z,6.87
2019-05-29T07:35:51.693Z,6.67
2019-05-29T07:38:21.101Z,7.20
2019-05-29T07:40:50.392Z,6.00
2019-05-29T07:43:19.804Z,6.67
2019-05-29T07:45:49.106Z,5.90
2019-05-29T07:48:18.395Z,6.57
2019-05-29T07:50:48.427Z,6.77
2019-05-29T07:53:18.108Z,5.70
2019-05-29T07:55:47.496Z,5.70
2019-05-29T07:58:17.205Z,6.47
2019-05-29T08:01:05.041Z,6.23
2019-05-29T08:03:17.630Z,5.97
2019-05-29T08:05:51.055Z,5.70
2019-05-29T08:08:18.031Z,5.83
2019-05-29T08:10:47.659Z,5.07
2019-05-29T08:13:17.281Z,6.40
2019-05-29T08:15:58.437Z,5.60
2019-05-29T08:18:17.639Z,6.30
2019-05-29T08:20:48.063Z,5.87
2019-05-29T08:23:17.530Z,5.70
2019-05-29T08:25:47.611Z,5.90
2019-05-29T08:28:17.193Z,5.83
2019-05-29T08:30:51.714Z,5.90
2019-05-29T08:33:17.558Z,6.37
2019-05-29T08:35:47.540Z,5.80
2019-05-29T08:38:18.029Z,5.80
2019-05-29T08:40:47.466Z,5.83
2019-05-29T08:43:16.889Z,5.37
2019-05-29T08:45:46.230Z,5.47
2019-05-29T08:48:16.110Z,5.80
2019-05-29T08:50:45.705Z,5.33
2019-05-29T08:53:15.301Z,5.03
2019-05-29T08:55:44.562Z,5.40
2019-05-29T08:58:32.950Z,4.93
2019-05-29T09:01:02.262Z,5.57
2019-05-29T09:03:31.553Z,7.93
2019-05-29T09:06:08.319Z,6.07
2019-05-29T09:08:32.033Z,5.30
2019-05-29T09:11:01.319Z,5.37
2019-05-29T09:13:30.683Z,5.57
2019-05-29T09:15:59.965Z,5.20
2019-05-29T09:18:29.322Z,5.13
2019-05-29T09:21:03.262Z,5.30
2019-05-29T09:23:29.815Z,5.30
2019-05-29T09:26:13.619Z,6.10
2019-05-29T09:28:28.517Z,5.30
2019-05-29T09:30:57.946Z,4.30
2019-05-29T09:33:27.297Z,4.97
2019-05-29T09:35:56.597Z,4.33
2019-05-29T09:38:25.877Z,5.00
2019-05-29T09:40:55.353Z,5.17
2019-05-29T09:43:30.045Z,4.70
2019-05-29T09:45:55.672Z,5.57
2019-05-29T09:48:28.286Z,5.57
2019-05-29T09:50:56.138Z,5.23
2019-05-29T09:53:25.510Z,5.50
2019-05-29T09:55:56.995Z,5.90
2019-05-29T09:58:25.807Z,5.67
2019-05-29T10:01:15.642Z,6.80
2019-05-29T10:03:26.139Z,6.67
2019-05-29T10:05:55.829Z,6.90
2019-05-29T10:08:25.310Z,7.07
2019-05-29T10:11:02.637Z,6.93
2019-05-29T10:13:25.794Z,7.63
2019-05-29T10:15:55.984Z,7.17
2019-05-29T10:18:32.383Z,7.47
2019-05-29T10:20:58.094Z,7.33
2019-05-29T10:23:28.169Z,8.20
2019-05-29T10:25:58.828Z,8.23
2019-05-29T10:28:48.416Z,7.27
2019-05-29T10:31:03.373Z,7.27
2019-05-29T10:33:32.386Z,7.30
2019-05-29T10:36:03.930Z,7.80
2019-05-29T10:38:32.707Z,6.67
2019-05-29T10:41:06.861Z,8.27
2019-05-29T10:43:34.884Z,8.00
2019-05-29T10:46:04.239Z,7.60
2019-05-29T10:48:33.798Z,6.77
2019-05-29T10:51:03.178Z,7.10
2019-05-29T10:53:32.455Z,7.30
2019-05-29T10:56:01.824Z,6.60
2019-05-29T10:58:45.804Z,11.40
2019-05-29T11:01:02.487Z,9.57
2019-05-29T11:03:31.851Z,8.50
2019-05-29T11:06:01.289Z,7.57
2019-05-29T11:08:30.570Z,7.00
2019-05-29T11:10:59.843Z,6.90
2019-05-29T11:13:29.129Z,7.77
2019-05-29T11:15:58.458Z,7.47
2019-05-29T11:18:27.740Z,8.43
2019-05-29T11:20:57.630Z,8.33
2019-05-29T11:23:27.299Z,8.93
2019-05-29T11:25:56.758Z,8.33
2019-05-29T11:28:26.130Z,8.97
2019-05-29T11:30:55.930Z,7.60
2019-05-29T11:33:26.472Z,8.70
2019-05-29T11:36:07.894Z,8.00
2019-05-29T11:38:26.770Z,9.30
2019-05-29T11:41:22.349Z,9.17
2019-05-29T11:43:27.249Z,8.27
2019-05-29T11:45:57.373Z,8.10
2019-05-29T11:48:26.782Z,9.17
2019-05-29T11:50:56.231Z,8.93
2019-05-29T11:53:25.589Z,7.67
2019-05-29T11:55:55.855Z,8.70
2019-05-29T11:58:31.122Z,8.17
2019-05-29T12:00:57.183Z,3.13
2019-05-29T12:03:26.786Z,3.10
2019-05-29T12:05:57.498Z,2.40
2019-05-29T12:08:26.930Z,1.63
2019-05-29T12:10:57.164Z,1.60
2019-05-29T12:13:26.830Z,1.83
2019-05-29T12:15:56.160Z,1.47
2019-05-29T12:18:25.458Z,1.33
2019-05-29T12:20:56.039Z,0.87
2019-05-29T12:23:26.811Z,0.73
2019-05-29T12:26:16.613Z,0.80
2019-05-29T12:28:27.607Z,0.60
2019-05-29T12:30:57.019Z,0.90
2019-05-29T12:33:26.360Z,0.60
2019-05-29T12:35:56.890Z,0.70
2019-05-29T12:38:26.374Z,0.67
2019-05-29T12:40:55.668Z,0.80
2019-05-29T12:43:27.863Z,0.83
2019-05-29T12:45:57.591Z,0.80
2019-05-29T12:48:27.178Z,0.80
2019-05-29T12:50:58.075Z,0.80
2019-05-29T12:53:30.729Z,0.90
2019-05-29T12:56:00.632Z,1.30
2019-05-29T12:58:30.195Z,1.17
2019-05-29T13:01:00.691Z,0.83
2019-05-29T13:03:30.370Z,1.10
2019-05-29T13:06:00.409Z,1.47
2019-05-29T13:08:29.854Z,1.67
2019-05-29T13:11:00.127Z,1.20
2019-05-29T13:13:29.815Z,1.17
2019-05-29T13:15:59.094Z,1.47
2019-05-29T13:18:28.493Z,1.03
2019-05-29T13:20:58.837Z,1.60
2019-05-29T13:23:28.335Z,1.37
2019-05-29T13:25:57.747Z,1.67
2019-05-29T13:28:27.103Z,1.70
2019-05-29T13:30:57.667Z,1.60
2019-05-29T13:33:27.464Z,1.77
2019-05-29T13:35:57.800Z,2.40
2019-05-29T13:38:29.490Z,2.83
2019-05-29T13:41:00.293Z,2.33
2019-05-29T13:43:29.707Z,2.37
2019-05-29T13:45:58.970Z,2.10
2019-05-29T13:48:28.380Z,2.60
2019-05-29T13:50:59.516Z,2.40
2019-05-29T13:53:29.070Z,3.90
2019-05-29T13:55:59.715Z,3.20
2019-05-29T13:58:29.227Z,2.70
2019-05-29T14:01:00.597Z,3.20
2019-05-29T14:03:29.581Z,3.93
2019-05-29T14:06:00.644Z,3.07
2019-05-29T14:08:30.182Z,2.70
2019-05-29T14:11:00.803Z,2.73
2019-05-29T14:13:30.327Z,2.60
2019-05-29T14:16:00.550Z,2.90
2019-05-29T14:18:30.206Z,2.67
2019-05-29T14:21:00.817Z,2.27
2019-05-29T14:23:30.324Z,2.53
2019-05-29T14:26:00.416Z,2.30
2019-05-29T14:28:29.898Z,2.33
2019-05-29T14:30:59.314Z,2.80
2019-05-29T14:33:28.597Z,2.93
2019-05-29T14:35:57.890Z,3.10
2019-05-29T14:38:27.273Z,2.77
2019-05-29T14:40:56.604Z,3.17
2019-05-29T14:43:25.883Z,2.37
2019-05-29T14:45:55.207Z,2.73
2019-05-29T14:48:24.635Z,2.57
2019-05-29T14:50:54.002Z,3.20
2019-05-29T14:53:23.288Z,2.87
2019-05-29T14:55:52.631Z,2.80
2019-05-29T14:58:21.946Z,3.17
2019-05-29T15:00:51.275Z,3.00
2019-05-29T15:03:20.617Z,2.77
2019-05-29T15:05:50.004Z,3.13
2019-05-29T15:08:19.265Z,3.10
2019-05-29T15:10:48.562Z,3.20
2019-05-29T15:13:17.846Z,2.93
2019-05-29T15:15:47.112Z,3.00
2019-05-29T15:18:18.920Z,3.13
2019-05-29T15:20:47.507Z,2.57
2019-05-29T15:23:16.860Z,2.90
2019-05-29T15:25:46.510Z,3.33
2019-05-29T15:28:17.406Z,2.90
2019-05-29T15:30:46.840Z,2.77
2019-05-29T15:33:16.918Z,3.30
2019-05-29T15:35:46.227Z,3.30
2019-05-29T15:38:16.933Z,3.07
2019-05-29T15:40:46.578Z,3.33
2019-05-29T15:43:17.237Z,3.10
2019-05-29T15:45:46.777Z,3.50
2019-05-29T15:48:17.377Z,2.90
2019-05-29T15:50:46.947Z,3.30
2019-05-29T15:53:17.239Z,3.57
2019-05-29T15:55:46.708Z,3.33
2019-05-29T15:58:17.802Z,3.33
2019-05-29T16:00:47.737Z,3.40
2019-05-29T16:03:17.766Z,3.10
2019-05-29T16:05:47.196Z,3.17
2019-05-29T16:08:16.460Z,3.60
2019-05-29T16:10:45.856Z,3.70
2019-05-29T16:13:15.127Z,4.00
2019-05-29T16:15:44.528Z,3.50
2019-05-29T16:18:23.164Z,4.17
2019-05-29T16:20:44.887Z,3.33
2019-05-29T16:23:29.916Z,3.73
2019-05-29T16:25:45.269Z,4.00
2019-05-29T16:28:15.155Z,4.10
2019-05-29T16:30:44.580Z,3.80
2019-05-29T16:33:15.053Z,4.23
2019-05-29T16:35:44.615Z,4.00
2019-05-29T16:38:14.197Z,4.90
2019-05-29T16:40:44.891Z,3.90
2019-05-29T16:43:14.261Z,4.00
2019-05-29T16:45:43.542Z,4.80
2019-05-29T16:48:13.015Z,4.63
2019-05-29T16:50:42.688Z,4.77
2019-05-29T16:53:12.597Z,4.10
2019-05-29T16:55:53.503Z,4.73
2019-05-29T16:58:13.070Z,4.67
2019-05-29T17:00:42.402Z,4.90
2019-05-29T17:03:11.727Z,4.90
2019-05-29T17:05:41.061Z,4.83
2019-05-29T17:08:10.550Z,4.80
2019-05-29T17:10:40.013Z,5.23
2019-05-29T17:13:09.316Z,4.77
2019-05-29T17:15:39.166Z,4.97
2019-05-29T17:18:08.452Z,4.93
2019-05-29T17:20:42.280Z,4.93
2019-05-29T17:23:12.074Z,5.80
2019-05-29T17:25:41.562Z,5.73
2019-05-29T17:28:10.947Z,5.90
2019-05-29T17:30:40.263Z,5.07
2019-05-29T17:33:09.568Z,4.20
2019-05-29T17:35:38.880Z,4.33
2019-05-29T17:38:08.355Z,4.43
2019-05-29T17:40:37.862Z,4.90
2019-05-29T17:43:07.183Z,4.70
2019-05-29T17:45:36.446Z,4.77
2019-05-29T17:48:05.977Z,4.83
2019-05-29T17:50:35.303Z,5.30
2019-05-29T17:53:04.654Z,5.47
2019-05-29T17:55:33.952Z,4.93
2019-05-29T17:58:03.407Z,4.90
2019-05-29T18:00:33.794Z,5.03
2019-05-29T18:03:03.183Z,5.03
2019-05-29T18:05:32.475Z,5.70
2019-05-29T18:08:02.073Z,5.70
2019-05-29T18:10:31.655Z,4.90
2019-05-29T18:13:00.967Z,5.87
2019-05-29T18:15:30.418Z,5.07
2019-05-29T18:17:59.735Z,4.53
2019-05-29T18:20:29.038Z,5.13
2019-05-29T18:22:58.362Z,4.83
2019-05-29T18:25:28.138Z,5.83
2019-05-29T18:27:57.565Z,4.37
2019-05-29T18:30:26.967Z,5.10
2019-05-29T18:32:56.306Z,5.70
2019-05-29T18:35:25.612Z,5.87
2019-05-29T18:37:55.059Z,5.57
2019-05-29T18:40:24.409Z,5.80
2019-05-29T18:42:53.711Z,5.83
2019-05-29T18:45:24.678Z,5.90
2019-05-29T18:47:54.086Z,6.33
2019-05-29T18:50:23.574Z,6.70
2019-05-29T18:52:53.046Z,6.87
2019-05-29T18:55:24.903Z,6.70
2019-05-29T18:57:54.383Z,7.03
2019-05-29T19:00:25.261Z,6.97
2019-05-29T19:02:54.793Z,7.73
2019-05-29T19:05:24.099Z,8.27
2019-05-29T19:07:53.487Z,7.53
2019-05-29T19:10:23.699Z,8.03
2019-05-29T19:12:53.086Z,8.50
2019-05-29T19:15:22.381Z,8.60
2019-05-29T19:17:51.673Z,8.83
2019-05-29T19:20:40.102Z,8.93
2019-05-29T19:23:09.395Z,7.97
2019-05-29T19:25:38.865Z,8.30
2019-05-29T19:28:08.322Z,8.10
2019-05-29T19:30:37.637Z,7.97
2019-05-29T19:33:06.914Z,8.70
2019-05-29T19:35:36.249Z,8.53
2019-05-29T19:38:05.544Z,8.70
2019-05-29T19:40:34.905Z,9.20
2019-05-29T19:43:05.113Z,9.40
2019-05-29T19:45:34.743Z,9.27
2019-05-29T19:48:04.415Z,10.37
2019-05-29T19:50:34.940Z,9.83
2019-05-29T19:53:04.798Z,9.80
2019-05-29T19:55:37.032Z,10.00
2019-05-29T19:58:05.582Z,10.23
2019-05-29T20:00:34.860Z,11.13
2019-05-29T20:03:04.169Z,11.60
2019-05-29T20:05:34.909Z,10.97
2019-05-29T20:08:04.488Z,11.63
2019-05-29T20:10:33.825Z,12.40
2019-05-29T20:13:03.254Z,12.37
2019-05-29T20:15:34.022Z,11.90
2019-05-29T20:18:03.432Z,12.10
2019-05-29T20:20:32.916Z,11.83
2019-05-29T20:23:02.277Z,13.73
2019-05-29T20:25:32.733Z,13.30
2019-05-29T20:28:06.240Z,14.03
2019-05-29T20:30:34.384Z,14.27
2019-05-29T20:33:03.853Z,13.97
2019-05-29T20:35:33.215Z,14.63
2019-05-29T20:38:06.235Z,14.53
2019-05-29T20:40:33.558Z,15.57
2019-05-29T20:43:02.890Z,15.83
2019-05-29T20:45:33.372Z,15.50
2019-05-29T20:48:02.790Z,15.03
2019-05-29T20:50:32.790Z,15.83
2019-05-29T20:53:02.219Z,16.70
2019-05-29T20:55:31.614Z,17.47
2019-05-29T20:58:00.946Z,16.70
2019-05-29T21:00:30.232Z,18.90
2019-05-29T21:02:59.530Z,18.57
2019-05-29T21:05:28.927Z,17.30
2019-05-29T21:07:58.249Z,17.33
2019-05-29T21:10:27.546Z,17.43
2019-05-29T21:12:56.857Z,16.63
2019-05-29T21:15:30.693Z,18.70
2019-05-29T21:18:00.065Z,17.50
2019-05-29T21:20:29.425Z,18.30
2019-05-29T21:22:58.722Z,17.17
2019-05-29T21:25:28.051Z,17.10
2019-05-29T21:27:57.338Z,16.03
2019-05-29T21:30:26.725Z,16.97
2019-05-29T21:32:56.137Z,17.30
2019-05-29T21:35:25.417Z,16.90
2019-05-29T21:37:54.694Z,17.27
2019-05-29T21:40:24.071Z,17.47
2019-05-29T21:42:53.377Z,17.37
2019-05-29T21:45:22.850Z,16.90
2019-05-29T21:47:52.143Z,17.97
2019-05-29T21:50:21.822Z,17.10
2019-05-29T21:52:51.162Z,16.90
2019-05-29T21:55:20.511Z,18.07
2019-05-29T21:57:50.328Z,18.43
2019-05-29T22:00:35.459Z,18.07
2019-05-29T22:03:05.553Z,18.47
2019-05-29T22:05:35.123Z,18.50
2019-05-29T22:08:04.707Z,18.40
2019-05-29T22:10:33.978Z,17.83
2019-05-29T22:13:03.650Z,18.13
2019-05-29T22:15:33.299Z,18.53
2019-05-29T22:18:05.826Z,19.00
2019-05-29T22:20:35.119Z,18.30
2019-05-29T22:23:04.524Z,16.17
2019-05-29T22:25:34.641Z,17.57
2019-05-29T22:28:04.294Z,17.77
2019-05-29T22:30:33.579Z,16.90
2019-05-29T22:33:02.859Z,16.97
2019-05-29T22:35:32.258Z,16.53
2019-05-29T22:38:01.871Z,16.07
2019-05-29T22:40:31.258Z,16.83
2019-05-29T22:43:01.974Z,16.40
2019-05-29T22:45:31.478Z,15.63
2019-05-29T22:48:02.249Z,15.30
2019-05-29T22:50:31.756Z,16.00
2019-05-29T22:53:02.087Z,15.93
2019-05-29T22:55:31.514Z,14.80
2019-05-29T22:58:02.103Z,15.77
2019-05-29T23:00:31.581Z,15.03
2019-05-29T23:03:02.289Z,15.50
2019-05-29T23:05:31.834Z,15.33
2019-05-29T23:08:02.410Z,14.80
2019-05-29T23:10:31.936Z,15.10
2019-05-29T23:13:04.361Z,14.63
2019-05-29T23:15:32.485Z,14.43
2019-05-29T23:18:02.806Z,15.03
2019-05-29T23:20:32.258Z,14.23
2019-05-29T23:23:02.784Z,13.97
2019-05-29T23:25:32.267Z,13.57
2019-05-29T23:28:01.595Z,13.00
2019-05-29T23:30:31.034Z,13.53
2019-05-29T23:33:01.138Z,13.57
2019-05-29T23:35:30.808Z,14.37
2019-05-29T23:38:01.222Z,13.43
2019-05-29T23:40:30.761Z,16.50
2019-05-29T23:43:00.087Z,17.40
2019-05-29T23:45:29.365Z,17.03
2019-05-29T23:47:59.602Z,17.13
2019-05-29T23:50:29.134Z,18.33
2019-05-29T23:52:59.604Z,16.83
2019-05-29T23:55:29.058Z,16.27
2019-05-29T23:57:58.378Z,17.57
